Time;durP1;ratioP1;P1;durP2;ratioP2;P2;SDS_P1;SDS_P2;PMS_P1;PMS_P2;Temp;Humidity;BMP_temperature;BMP_pressure;BME280_temperature;BME280_humidity;BME280_pressure;Samples;Min_cycle;Max_cycle;Signal;HPM_P1;HPM_P2
2023/06/23 00:06:13;;;;;;;;;;;24.30;48.60;;;;;;20920393;28;20097;-56
2023/06/23 00:16:14;;;;;;;;;;;24.20;48.70;;;;;;20918720;28;19924;-56
2023/06/23 00:26:15;;;;;;;;;;;24.10;49.30;;;;;;20917388;28;19936;-57
2023/06/23 00:36:15;;;;;;;;;;;23.90;50.00;;;;;;20918168;28;19925;-55
2023/06/23 00:46:17;;;;;;;;;;;23.80;50.80;;;;;;20917398;28;19925;-55
2023/06/23 00:56:21;;;;;;;;;;;23.70;51.50;;;;;;20915606;28;20372;-57
2023/06/23 01:06:43;;;;;;;;;;;23.90;52.20;;;;;;20916319;28;20294;-57
2023/06/23 01:16:56;;;;;;;;;;;23.80;53.00;;;;;;20914529;28;20021;-57
2023/06/23 01:26:56;;;;;;;;;;;23.70;53.30;;;;;;20913451;28;19932;-57
2023/06/23 01:37:01;;;;;;;;;;;23.80;53.80;;;;;;20913293;28;20007;-56
2023/06/23 01:47:11;;;;;;;;;;;23.60;54.20;;;;;;20913003;28;19925;-56
2023/06/23 01:57:12;;;;;;;;;;;23.60;54.80;;;;;;20921096;28;19958;-56
2023/06/23 02:07:14;;;;;;;;;;;23.50;55.40;;;;;;20930014;28;20062;-57
2023/06/23 02:17:16;;;;;;;;;;;23.40;56.00;;;;;;20929617;28;19933;-57
2023/06/23 02:27:17;;;;;;;;;;;23.30;56.50;;;;;;20928061;28;19924;-58
2023/06/23 02:37:21;;;;;;;;;;;23.20;56.70;;;;;;20926905;28;19925;-56
2023/06/23 02:47:23;;;;;;;;;;;23.10;57.10;;;;;;20926408;28;19936;-58
2023/06/23 02:57:24;;;;;;;;;;;23.00;58.00;;;;;;20925586;28;19925;-59
2023/06/23 03:07:26;;;;;;;;;;;23.00;58.20;;;;;;20924645;28;19968;-57
2023/06/23 03:17:28;;;;;;;;;;;22.90;58.80;;;;;;20923331;28;19925;-58
2023/06/23 03:27:29;;;;;;;;;;;22.80;58.90;;;;;;20922761;28;19925;-58
2023/06/23 03:37:30;;;;;;;;;;;22.80;59.40;;;;;;20923158;28;19925;-57
2023/06/23 03:47:32;;;;;;;;;;;22.70;59.50;;;;;;20922596;28;19929;-57
2023/06/23 03:57:33;;;;;;;;;;;22.90;59.30;;;;;;20921511;28;20020;-56
2023/06/23 04:07:34;;;;;;;;;;;22.70;59.70;;;;;;20920275;28;19961;-56
2023/06/23 04:17:36;;;;;;;;;;;22.70;59.10;;;;;;20919073;28;19932;-57
2023/06/23 04:27:37;;;;;;;;;;;22.60;59.50;;;;;;20919748;28;19925;-56
2023/06/23 04:37:40;;;;;;;;;;;22.60;59.30;;;;;;20916925;28;19924;-57
2023/06/23 04:47:43;;;;;;;;;;;22.50;59.50;;;;;;20915750;28;19992;-56
2023/06/23 04:57:45;;;;;;;;;;;22.50;59.70;;;;;;20916646;28;19975;-57
2023/06/23 05:07:46;;;;;;;;;;;22.50;59.70;;;;;;20914582;28;19926;-56
2023/06/23 05:17:51;;;;;;;;;;;22.40;59.50;;;;;;20914976;28;19925;-56
2023/06/23 05:27:57;;;;;;;;;;;22.50;59.70;;;;;;20912673;28;19936;-57
2023/06/23 05:38:00;;;;;;;;;;;22.60;59.30;;;;;;20914290;28;19925;-57
2023/06/23 05:48:19;;;;;;;;;;;22.50;59.60;;;;;;20913102;28;19925;-56
2023/06/23 05:58:22;;;;;;;;;;;22.50;59.70;;;;;;20912752;28;19925;-56
2023/06/23 06:08:23;;;;;;;;;;;22.60;59.40;;;;;;20913055;28;20002;-56
2023/06/23 06:18:24;;;;;;;;;;;22.60;59.30;;;;;;20910830;28;19924;-57
2023/06/23 06:28:26;;;;;;;;;;;22.70;59.00;;;;;;20910678;28;19925;-57
2023/06/23 06:38:29;;;;;;;;;;;22.90;58.30;;;;;;20911930;28;19925;-57
2023/06/23 06:48:31;;;;;;;;;;;23.00;58.40;;;;;;20925517;28;19987;-58
2023/06/23 06:58:32;;;;;;;;;;;23.20;57.80;;;;;;20925486;28;19936;-56
2023/06/23 07:08:33;;;;;;;;;;;23.80;55.30;;;;;;20923359;28;19925;-56
2023/06/23 07:18:33;;;;;;;;;;;24.50;53.90;;;;;;20922566;28;20396;-57
2023/06/23 07:28:34;;;;;;;;;;;25.10;52.50;;;;;;20921657;28;20344;-56
2023/06/23 07:38:35;;;;;;;;;;;25.60;50.10;;;;;;20922643;28;19932;-58
2023/06/23 07:48:35;;;;;;;;;;;25.90;49.90;;;;;;20919920;28;19932;-57
2023/06/23 07:58:36;;;;;;;;;;;26.10;48.60;;;;;;20920186;28;20398;-58
2023/06/23 08:08:37;;;;;;;;;;;26.40;47.30;;;;;;20917757;28;19924;-57
2023/06/23 08:18:37;;;;;;;;;;;26.70;46.50;;;;;;20917406;28;20034;-58
2023/06/23 08:28:38;;;;;;;;;;;27.00;45.60;;;;;;20916556;28;20310;-57
2023/06/23 08:38:39;;;;;;;;;;;27.20;45.30;;;;;;20917053;28;20018;-56
2023/06/23 08:48:42;;;;;;;;;;;27.30;44.60;;;;;;20915193;28;19924;-57
2023/06/23 08:58:43;;;;;;;;;;;27.50;43.90;;;;;;20915613;28;19925;-57
2023/06/23 09:08:43;;;;;;;;;;;27.70;44.40;;;;;;20913350;28;19924;-56
2023/06/23 09:18:47;;;;;;;;;;;27.90;44.20;;;;;;20912852;28;19925;-59
2023/06/23 09:28:49;;;;;;;;;;;28.10;44.10;;;;;;20910237;28;19987;-59
2023/06/23 09:38:52;;;;;;;;;;;28.40;43.80;;;;;;20913266;28;20002;-58
2023/06/23 09:48:53;;;;;;;;;;;28.60;43.90;;;;;;20912997;28;20340;-58
2023/06/23 09:58:54;;;;;;;;;;;28.70;42.40;;;;;;20912609;28;20361;-58
2023/06/23 10:08:56;;;;;;;;;;;29.00;42.00;;;;;;20912137;28;19972;-58
2023/06/23 10:18:57;;;;;;;;;;;29.30;40.10;;;;;;20921368;28;20446;-58
2023/06/23 10:28:58;;;;;;;;;;;29.30;40.20;;;;;;20926935;28;19972;-58
2023/06/23 10:39:00;;;;;;;;;;;29.40;40.20;;;;;;20926481;28;19925;-57
2023/06/23 10:49:03;;;;;;;;;;;29.60;39.40;;;;;;20923986;28;20019;-58
2023/06/23 10:59:17;;;;;;;;;;;29.60;39.10;;;;;;20922288;28;19932;-58
2023/06/23 11:09:44;;;;;;;;;;;29.80;37.90;;;;;;20923113;28;20023;-56
2023/06/23 11:19:49;;;;;;;;;;;29.90;38.00;;;;;;20915841;28;19928;-57
2023/06/23 11:30:09;;;;;;;;;;;30.20;36.00;;;;;;20922274;28;19932;-57
2023/06/23 11:40:11;;;;;;;;;;;30.30;36.30;;;;;;20921037;28;19925;-57
2023/06/23 11:50:11;;;;;;;;;;;30.60;34.50;;;;;;20920078;28;20008;-58
2023/06/23 12:00:12;;;;;;;;;;;30.60;33.10;;;;;;20918089;28;19991;-57
2023/06/23 12:10:13;;;;;;;;;;;30.90;32.50;;;;;;20918278;28;20382;-58
2023/06/23 12:20:17;;;;;;;;;;;30.80;32.60;;;;;;20918492;28;19975;-57
2023/06/23 12:30:18;;;;;;;;;;;30.90;31.90;;;;;;20918407;28;19925;-57
2023/06/23 12:40:38;;;;;;;;;;;31.10;30.10;;;;;;20915411;28;19970;-58
2023/06/23 12:50:41;;;;;;;;;;;31.10;30.40;;;;;;20916812;28;19947;-58
2023/06/23 13:00:43;;;;;;;;;;;31.20;30.00;;;;;;20914644;28;19933;-59
2023/06/23 13:10:43;;;;;;;;;;;31.10;30.20;;;;;;20913730;28;19925;-57
2023/06/23 13:20:44;;;;;;;;;;;31.20;30.20;;;;;;20913304;28;19924;-59
2023/06/23 13:30:45;;;;;;;;;;;31.10;29.80;;;;;;20911425;28;19989;-58
2023/06/23 13:40:45;;;;;;;;;;;31.20;30.30;;;;;;20912232;28;19932;-58
2023/06/23 13:50:46;;;;;;;;;;;31.20;30.70;;;;;;20919867;28;19932;-58
2023/06/23 14:00:46;;;;;;;;;;;31.80;29.40;;;;;;20937936;28;19928;-58
2023/06/23 14:10:47;;;;;;;;;;;32.00;29.30;;;;;;20937671;28;19998;-58
2023/06/23 14:20:48;;;;;;;;;;;32.00;29.50;;;;;;20936228;28;19925;-58
2023/06/23 14:30:48;;;;;;;;;;;31.70;31.00;;;;;;20936275;28;20401;-58
2023/06/23 14:40:49;;;;;;;;;;;32.00;30.80;;;;;;20937147;28;19925;-58
2023/06/23 14:50:50;;;;;;;;;;;32.00;30.40;;;;;;20936910;28;19960;-58
2023/06/23 15:00:50;;;;;;;;;;;32.10;30.70;;;;;;20934165;28;19931;-58
2023/06/23 15:10:52;;;;;;;;;;;32.00;30.40;;;;;;20922180;28;20078;-58
2023/06/23 15:20:53;;;;;;;;;;;31.90;30.90;;;;;;20924531;28;19929;-58
2023/06/23 15:30:54;;;;;;;;;;;32.10;30.10;;;;;;20921228;28;19986;-57
2023/06/23 15:40:55;;;;;;;;;;;32.20;31.00;;;;;;20920155;28;19971;-58
2023/06/23 15:50:55;;;;;;;;;;;32.10;30.50;;;;;;20913257;28;20390;-58
2023/06/23 16:00:56;;;;;;;;;;;32.30;30.80;;;;;;20908687;28;19964;-56
2023/06/23 16:10:57;;;;;;;;;;;32.30;30.80;;;;;;20895232;28;20044;-58
2023/06/23 16:20:57;;;;;;;;;;;32.20;30.60;;;;;;20913020;28;20370;-59
2023/06/23 16:30:58;;;;;;;;;;;32.20;30.90;;;;;;20914969;28;19924;-59
2023/06/23 16:40:59;;;;;;;;;;;32.20;30.70;;;;;;20913563;28;19956;-60
2023/06/23 16:51:00;;;;;;;;;;;32.20;31.00;;;;;;20913697;28;20019;-60
2023/06/23 17:01:00;;;;;;;;;;;31.90;31.20;;;;;;20905257;28;19925;-59
2023/06/23 17:11:01;;;;;;;;;;;32.20;31.30;;;;;;20897892;28;19933;-60
2023/06/23 17:21:02;;;;;;;;;;;32.30;31.40;;;;;;20910378;28;19997;-63
2023/06/23 17:31:02;;;;;;;;;;;32.30;31.50;;;;;;20911324;28;20305;-60
2023/06/23 17:41:03;;;;;;;;;;;32.30;31.20;;;;;;20904355;28;19940;-63
2023/06/23 17:51:05;;;;;;;;;;;32.20;31.10;;;;;;20910988;28;20016;-61
2023/06/23 18:01:05;;;;;;;;;;;32.10;31.20;;;;;;20911789;28;19955;-59
2023/06/23 18:11:06;;;;;;;;;;;31.90;31.30;;;;;;20905600;28;19972;-60
2023/06/23 18:21:06;;;;;;;;;;;32.00;31.40;;;;;;20903613;28;19967;-60
2023/06/23 18:31:07;;;;;;;;;;;32.00;31.90;;;;;;20897545;28;20406;-63
2023/06/23 18:41:08;;;;;;;;;;;31.70;32.60;;;;;;20917619;28;19931;-57
2023/06/23 18:51:09;;;;;;;;;;;31.50;32.90;;;;;;20923786;28;20288;-56
2023/06/23 19:01:09;;;;;;;;;;;31.50;33.10;;;;;;20924042;28;19925;-56
2023/06/23 19:11:10;;;;;;;;;;;31.40;33.40;;;;;;20924684;28;20394;-57
2023/06/23 19:21:11;;;;;;;;;;;31.30;33.60;;;;;;20923775;28;20015;-57
2023/06/23 19:31:11;;;;;;;;;;;31.10;33.60;;;;;;20923829;28;19970;-56
2023/06/23 19:41:12;;;;;;;;;;;31.00;33.60;;;;;;20921102;28;19993;-57
2023/06/23 19:51:12;;;;;;;;;;;30.80;33.90;;;;;;20918397;28;19951;-56
2023/06/23 20:01:17;;;;;;;;;;;30.70;34.00;;;;;;20918316;28;20420;-54
2023/06/23 20:11:17;;;;;;;;;;;30.60;33.90;;;;;;20919005;28;19925;-56
2023/06/23 20:21:18;;;;;;;;;;;30.50;34.50;;;;;;20918171;28;20142;-56
2023/06/23 20:31:19;;;;;;;;;;;30.30;34.80;;;;;;20917511;28;19921;-57
2023/06/23 20:41:21;;;;;;;;;;;30.20;34.90;;;;;;20915949;28;19931;-59
2023/06/23 20:51:24;;;;;;;;;;;30.10;35.40;;;;;;20913303;28;20290;-60
2023/06/23 21:01:24;;;;;;;;;;;29.70;37.40;;;;;;20913129;28;19936;-58
2023/06/23 21:11:25;;;;;;;;;;;29.60;37.00;;;;;;20914165;28;19929;-57
2023/06/23 21:21:26;;;;;;;;;;;29.50;37.00;;;;;;20913212;28;19925;-58
2023/06/23 21:31:26;;;;;;;;;;;29.50;37.50;;;;;;20914193;28;19925;-56
2023/06/23 21:41:27;;;;;;;;;;;29.40;38.00;;;;;;20913516;28;19925;-56
2023/06/23 21:51:28;;;;;;;;;;;29.20;38.50;;;;;;20913337;28;20325;-57
2023/06/23 22:01:28;;;;;;;;;;;29.10;38.30;;;;;;20912993;28;19925;-55
2023/06/23 22:11:29;;;;;;;;;;;29.00;39.90;;;;;;20916516;28;19925;-57
2023/06/23 22:21:30;;;;;;;;;;;28.50;41.50;;;;;;20927206;28;20007;-57
2023/06/23 22:31:30;;;;;;;;;;;28.00;42.30;;;;;;20927124;28;20315;-56
2023/06/23 22:41:31;;;;;;;;;;;27.70;42.90;;;;;;20927408;28;20016;-57
2023/06/23 22:51:32;;;;;;;;;;;27.60;43.10;;;;;;20925548;28;19925;-56
2023/06/23 23:01:33;;;;;;;;;;;27.30;43.60;;;;;;20924892;28;19928;-57
2023/06/23 23:11:34;;;;;;;;;;;27.10;44.00;;;;;;20924130;28;19932;-55
2023/06/23 23:21:37;;;;;;;;;;;27.00;44.40;;;;;;20921669;28;20354;-57
2023/06/23 23:31:40;;;;;;;;;;;26.70;44.90;;;;;;20923155;28;19928;-56
2023/06/23 23:41:40;;;;;;;;;;;26.60;45.30;;;;;;20922255;28;19925;-57
2023/06/23 23:51:41;;;;;;;;;;;26.40;45.80;;;;;;20922907;28;19994;-56
